Time;durP1;ratioP1;P1;durP2;ratioP2;P2;SDS_P1;SDS_P2;PMS_P1;PMS_P2;Temp;Humidity;BMP_temperature;BMP_pressure;BME280_temperature;BME280_humidity;BME280_pressure;Samples;Min_cycle;Max_cycle;Signal;HPM_P1;HPM_P2
2023/05/03 00:00:02;;;;;;;4.97;2.90;;;;;;;;;;5124196;27;20513;-77
2023/05/03 00:02:30;;;;;;;3.40;3.10;;;;;;;;;;5124717;28;20447;-77
2023/05/03 00:04:59;;;;;;;6.20;3.07;;;;;;;;;;5123901;27;20458;-77
2023/05/03 00:07:26;;;;;;;7.43;3.90;;;;;;;;;;5127905;27;20486;-78
2023/05/03 00:09:54;;;;;;;4.93;3.13;;;;;;;;;;5128494;27;20549;-76
2023/05/03 00:12:20;;;;;;;7.70;4.10;;;;;;;;;;5116237;28;20510;-76
2023/05/03 00:14:47;;;;;;;6.60;3.10;;;;;;;;;;5130879;27;20489;-75
2023/05/03 00:17:13;;;;;;;5.30;3.10;;;;;;;;;;5129830;27;20469;-76
2023/05/03 00:19:41;;;;;;;6.37;3.10;;;;;;;;;;5124283;28;20446;-76
2023/05/03 00:22:08;;;;;;;5.03;3.70;;;;;;;;;;5124556;27;20450;-76
2023/05/03 00:24:34;;;;;;;8.10;3.40;;;;;;;;;;5125599;27;20450;-76
2023/05/03 00:27:03;;;;;;;5.77;3.73;;;;;;;;;;5124243;28;20526;-75
2023/05/03 00:29:29;;;;;;;5.60;3.50;;;;;;;;;;5124150;28;20543;-76
2023/05/03 00:31:56;;;;;;;5.87;3.40;;;;;;;;;;5125501;27;20472;-76
2023/05/03 00:34:22;;;;;;;5.73;3.00;;;;;;;;;;5124538;28;20500;-76
2023/05/03 00:36:49;;;;;;;5.00;3.40;;;;;;;;;;5124103;28;20552;-75
2023/05/03 00:39:15;;;;;;;5.10;3.50;;;;;;;;;;5118350;27;20541;-76
2023/05/03 00:41:41;;;;;;;4.63;3.37;;;;;;;;;;5124356;28;20525;-76
2023/05/03 00:44:09;;;;;;;4.60;3.83;;;;;;;;;;5126515;27;20476;-76
2023/05/03 00:46:36;;;;;;;3.57;3.27;;;;;;;;;;5124135;28;20517;-76
2023/05/03 00:49:02;;;;;;;9.80;4.10;;;;;;;;;;5125816;27;20522;-76
2023/05/03 00:51:28;;;;;;;5.53;3.00;;;;;;;;;;5123592;28;20470;-76
2023/05/03 00:53:56;;;;;;;7.00;4.00;;;;;;;;;;5122737;28;20470;-75
2023/05/03 00:56:23;;;;;;;8.93;3.67;;;;;;;;;;5120820;28;20486;-75
2023/05/03 00:58:50;;;;;;;5.13;3.20;;;;;;;;;;5112638;28;20488;-75
2023/05/03 01:01:18;;;;;;;5.40;3.40;;;;;;;;;;5124087;27;20615;-75
2023/05/03 01:03:45;;;;;;;12.67;4.47;;;;;;;;;;5123723;28;20496;-75
2023/05/03 01:06:15;;;;;;;6.97;4.03;;;;;;;;;;5124272;28;20462;-75
2023/05/03 01:08:45;;;;;;;7.43;4.07;;;;;;;;;;5127134;27;20560;-75
2023/05/03 01:11:14;;;;;;;5.97;3.80;;;;;;;;;;5123117;28;21063;-75
2023/05/03 01:13:44;;;;;;;7.80;3.70;;;;;;;;;;5123430;27;20526;-75
2023/05/03 01:16:14;;;;;;;7.50;3.87;;;;;;;;;;5129393;27;20457;-75
2023/05/03 01:18:45;;;;;;;4.57;3.77;;;;;;;;;;5127368;27;20446;-75
2023/05/03 01:21:14;;;;;;;4.90;3.60;;;;;;;;;;5124541;27;20485;-75
2023/05/03 01:23:43;;;;;;;6.40;4.17;;;;;;;;;;5122685;28;20454;-77
2023/05/03 01:26:24;;;;;;;6.47;4.10;;;;;;;;;;5122640;28;20465;-77
2023/05/03 01:28:52;;;;;;;5.63;4.43;;;;;;;;;;5118071;28;20465;-77
2023/05/03 01:31:23;;;;;;;6.63;4.30;;;;;;;;;;5123614;27;20470;-78
2023/05/03 01:33:56;;;;;;;10.07;6.00;;;;;;;;;;5123142;28;20457;-77
2023/05/03 01:36:23;;;;;;;8.37;5.43;;;;;;;;;;5122837;28;20549;-77
2023/05/03 01:38:50;;;;;;;5.80;4.53;;;;;;;;;;5123136;28;20485;-76
2023/05/03 01:41:18;;;;;;;6.63;4.60;;;;;;;;;;5122825;28;20523;-77
2023/05/03 01:43:45;;;;;;;9.67;5.17;;;;;;;;;;5126217;27;20462;-77
2023/05/03 01:46:13;;;;;;;5.83;4.70;;;;;;;;;;5124123;27;21032;-76
2023/05/03 01:48:40;;;;;;;9.43;5.33;;;;;;;;;;5131941;27;20479;-75
2023/05/03 01:51:06;;;;;;;6.70;4.30;;;;;;;;;;5127951;27;21145;-75
2023/05/03 01:53:33;;;;;;;5.23;4.73;;;;;;;;;;5129230;27;20596;-76
2023/05/03 01:55:59;;;;;;;7.57;4.70;;;;;;;;;;5122814;28;21011;-75
2023/05/03 01:58:25;;;;;;;6.03;4.70;;;;;;;;;;5125099;27;20484;-76
2023/05/03 02:00:52;;;;;;;5.07;4.60;;;;;;;;;;5122911;28;20484;-76
2023/05/03 02:03:20;;;;;;;8.10;5.13;;;;;;;;;;5123181;28;20458;-76
2023/05/03 02:05:46;;;;;;;5.17;4.67;;;;;;;;;;5123106;28;20458;-76
2023/05/03 02:08:12;;;;;;;6.43;4.53;;;;;;;;;;5123932;28;20541;-76
2023/05/03 02:10:39;;;;;;;6.60;4.87;;;;;;;;;;5137094;28;20970;-77
2023/05/03 02:13:05;;;;;;;6.60;4.30;;;;;;;;;;5133970;28;20449;-77
2023/05/03 02:15:32;;;;;;;7.70;4.47;;;;;;;;;;5123337;28;20482;-78
2023/05/03 02:18:01;;;;;;;7.90;4.00;;;;;;;;;;5122503;28;20456;-77
2023/05/03 02:20:34;;;;;;;6.23;4.20;;;;;;;;;;5122829;28;20493;-78
2023/05/03 02:23:00;;;;;;;6.17;4.23;;;;;;;;;;5112623;28;20454;-77
2023/05/03 02:25:27;;;;;;;7.30;5.30;;;;;;;;;;5122131;28;20462;-77
2023/05/03 02:27:53;;;;;;;5.17;4.30;;;;;;;;;;5133888;28;20478;-77
2023/05/03 02:30:19;;;;;;;5.80;4.40;;;;;;;;;;5130519;28;20453;-77
2023/05/03 02:32:46;;;;;;;4.73;4.23;;;;;;;;;;5123206;28;20467;-76
2023/05/03 02:35:12;;;;;;;4.87;3.93;;;;;;;;;;5122613;28;20462;-77
2023/05/03 02:37:40;;;;;;;9.40;4.60;;;;;;;;;;5122324;28;20474;-77
2023/05/03 02:40:08;;;;;;;5.30;4.40;;;;;;;;;;5121911;28;20500;-77
2023/05/03 02:42:35;;;;;;;13.70;5.73;;;;;;;;;;5122505;28;20492;-77
2023/05/03 02:45:02;;;;;;;9.17;5.37;;;;;;;;;;5129315;28;20453;-76
2023/05/03 02:47:28;;;;;;;5.87;5.13;;;;;;;;;;5123176;28;20457;-78
2023/05/03 02:49:55;;;;;;;8.23;5.50;;;;;;;;;;5126918;28;21207;-76
2023/05/03 02:52:21;;;;;;;7.00;5.70;;;;;;;;;;5122418;28;20468;-77
2023/05/03 02:54:49;;;;;;;8.10;4.90;;;;;;;;;;5121789;28;20470;-77
2023/05/03 02:57:15;;;;;;;7.47;5.80;;;;;;;;;;5122322;28;20457;-77
2023/05/03 02:59:42;;;;;;;8.00;5.30;;;;;;;;;;5122468;28;20491;-76
2023/05/03 03:02:08;;;;;;;5.30;4.80;;;;;;;;;;5122434;28;20584;-77
2023/05/03 03:04:35;;;;;;;8.70;5.20;;;;;;;;;;5121989;28;20470;-76
2023/05/03 03:07:01;;;;;;;6.10;5.00;;;;;;;;;;5121862;28;20484;-76
2023/05/03 03:09:27;;;;;;;6.40;4.97;;;;;;;;;;5125225;28;20491;-76
2023/05/03 03:11:55;;;;;;;6.87;4.80;;;;;;;;;;5127603;28;20538;-76
2023/05/03 03:14:22;;;;;;;5.70;4.70;;;;;;;;;;5122314;28;20492;-76
2023/05/03 03:16:50;;;;;;;5.33;4.83;;;;;;;;;;5126126;27;20505;-77
2023/05/03 03:19:17;;;;;;;5.10;4.60;;;;;;;;;;5120603;28;20468;-77
2023/05/03 03:21:43;;;;;;;9.13;5.30;;;;;;;;;;5125662;28;20927;-74
2023/05/03 03:24:10;;;;;;;8.57;5.50;;;;;;;;;;5125580;28;20488;-75
2023/05/03 03:26:36;;;;;;;5.67;5.03;;;;;;;;;;5126281;27;20499;-75
2023/05/03 03:29:04;;;;;;;6.80;6.07;;;;;;;;;;5125711;27;20470;-74
2023/05/03 03:31:31;;;;;;;6.77;5.30;;;;;;;;;;5121532;28;20505;-74
2023/05/03 03:33:57;;;;;;;12.23;5.90;;;;;;;;;;5125506;27;20541;-75
2023/05/03 03:36:23;;;;;;;6.57;5.37;;;;;;;;;;5121691;28;20478;-75
2023/05/03 03:38:50;;;;;;;7.20;5.47;;;;;;;;;;5132313;27;20489;-75
2023/05/03 03:41:16;;;;;;;5.80;4.70;;;;;;;;;;5131999;27;20520;-75
2023/05/03 03:43:43;;;;;;;5.97;4.60;;;;;;;;;;5115483;28;20454;-75
2023/05/03 03:46:10;;;;;;;8.87;5.50;;;;;;;;;;5125444;28;20512;-75
2023/05/03 03:48:37;;;;;;;6.03;5.30;;;;;;;;;;5130962;27;20477;-76
2023/05/03 03:51:03;;;;;;;8.00;5.90;;;;;;;;;;5128148;27;20926;-78
2023/05/03 03:53:30;;;;;;;6.63;5.27;;;;;;;;;;5122904;28;20473;-77
2023/05/03 03:55:56;;;;;;;7.30;6.07;;;;;;;;;;5123957;28;20472;-78
2023/05/03 03:58:22;;;;;;;7.07;5.00;;;;;;;;;;5128763;27;20537;-77
2023/05/03 04:00:49;;;;;;;11.10;5.17;;;;;;;;;;5125419;28;20490;-77
2023/05/03 04:03:17;;;;;;;6.33;5.30;;;;;;;;;;5125349;28;20446;-77
2023/05/03 04:05:43;;;;;;;8.27;5.80;;;;;;;;;;5124822;27;20482;-77
2023/05/03 04:08:10;;;;;;;5.70;5.20;;;;;;;;;;5124563;28;20488;-77
2023/05/03 04:10:36;;;;;;;5.40;4.90;;;;;;;;;;5119233;28;20455;-77
2023/05/03 04:13:03;;;;;;;8.27;6.13;;;;;;;;;;5117284;28;20438;-77
2023/05/03 04:15:29;;;;;;;7.97;5.30;;;;;;;;;;5122876;27;20442;-76
2023/05/03 04:17:55;;;;;;;6.57;5.33;;;;;;;;;;5132402;27;20445;-76
2023/05/03 04:20:24;;;;;;;6.00;4.87;;;;;;;;;;5124667;28;20881;-76
2023/05/03 04:22:50;;;;;;;6.17;5.57;;;;;;;;;;5126144;27;20576;-78
2023/05/03 04:25:17;;;;;;;6.73;5.37;;;;;;;;;;5122242;27;20461;-77
2023/05/03 04:27:44;;;;;;;6.53;5.20;;;;;;;;;;5125391;27;21015;-75
2023/05/03 04:30:10;;;;;;;5.27;4.70;;;;;;;;;;5124016;27;20489;-74
2023/05/03 04:32:39;;;;;;;8.77;5.40;;;;;;;;;;5127691;27;20536;-75
2023/05/03 04:35:09;;;;;;;5.03;4.00;;;;;;;;;;5125206;28;20481;-74
2023/05/03 04:37:37;;;;;;;9.33;4.37;;;;;;;;;;5122766;28;20462;-80
2023/05/03 04:40:07;;;;;;;3.50;3.00;;;;;;;;;;5119748;27;20451;-75
2023/05/03 04:42:33;;;;;;;3.57;3.27;;;;;;;;;;5119325;27;20478;-76
2023/05/03 04:45:01;;;;;;;3.80;3.37;;;;;;;;;;5115692;27;20458;-75
2023/05/03 04:47:28;;;;;;;4.63;3.90;;;;;;;;;;5116968;27;20451;-75
2023/05/03 04:49:54;;;;;;;5.10;3.70;;;;;;;;;;5124477;27;20516;-76
2023/05/03 04:52:21;;;;;;;5.27;3.97;;;;;;;;;;5130541;27;20495;-76
2023/05/03 04:54:48;;;;;;;9.93;4.30;;;;;;;;;;5126471;27;20486;-75
2023/05/03 04:57:15;;;;;;;6.10;4.40;;;;;;;;;;5124429;27;20469;-77
2023/05/03 04:59:41;;;;;;;5.37;4.20;;;;;;;;;;5122799;28;20482;-77
2023/05/03 05:02:08;;;;;;;6.47;4.73;;;;;;;;;;5125087;27;20514;-76
2023/05/03 05:04:34;;;;;;;8.70;5.03;;;;;;;;;;5129470;27;20473;-77
2023/05/03 05:07:00;;;;;;;6.70;4.77;;;;;;;;;;5123358;27;20507;-76
2023/05/03 05:09:28;;;;;;;5.03;4.43;;;;;;;;;;5122107;28;20481;-79
2023/05/03 05:11:55;;;;;;;6.57;3.90;;;;;;;;;;5122662;28;20457;-80
2023/05/03 05:14:22;;;;;;;6.57;3.57;;;;;;;;;;5118513;28;20496;-81
2023/05/03 05:16:48;;;;;;;5.80;3.80;;;;;;;;;;5121093;27;20478;-81
2023/05/03 05:19:15;;;;;;;4.70;3.70;;;;;;;;;;5123556;28;20481;-80
2023/05/03 05:21:42;;;;;;;5.70;4.07;;;;;;;;;;5121927;28;20557;-83
2023/05/03 05:24:08;;;;;;;6.70;4.30;;;;;;;;;;5091691;27;21032;-79
2023/05/03 05:26:35;;;;;;;6.77;4.03;;;;;;;;;;5071467;28;20469;-80
2023/05/03 05:29:03;;;;;;;6.77;4.50;;;;;;;;;;5066357;28;20456;-81
2023/05/03 05:31:30;;;;;;;5.87;3.80;;;;;;;;;;5061755;28;20487;-79
2023/05/03 05:33:56;;;;;;;7.07;4.07;;;;;;;;;;5060967;28;20464;-79
2023/05/03 05:36:22;;;;;;;4.03;3.63;;;;;;;;;;5065308;28;20916;-80
2023/05/03 05:38:49;;;;;;;5.83;4.53;;;;;;;;;;5061210;28;20520;-80
2023/05/03 05:41:15;;;;;;;10.57;5.07;;;;;;;;;;5071993;28;20464;-79
2023/05/03 05:43:42;;;;;;;7.57;5.13;;;;;;;;;;5089924;28;20470;-79
2023/05/03 05:46:10;;;;;;;6.67;5.00;;;;;;;;;;5081890;28;20496;-80
2023/05/03 05:48:36;;;;;;;8.63;4.70;;;;;;;;;;5082685;28;20444;-81
2023/05/03 05:51:04;;;;;;;7.20;5.23;;;;;;;;;;5071220;28;20492;-81
2023/05/03 05:53:30;;;;;;;4.83;4.03;;;;;;;;;;5061018;28;21419;-79
2023/05/03 05:55:57;;;;;;;5.57;4.50;;;;;;;;;;5056685;28;21060;-80
2023/05/03 05:58:23;;;;;;;10.70;5.50;;;;;;;;;;5063781;28;20483;-80
2023/05/03 06:00:50;;;;;;;5.67;4.30;;;;;;;;;;5063628;28;20584;-80
2023/05/03 06:03:18;;;;;;;8.50;4.97;;;;;;;;;;5063425;28;20481;-79
2023/05/03 06:05:44;;;;;;;7.93;4.27;;;;;;;;;;5061083;28;20495;-81
2023/05/03 06:08:11;;;;;;;5.30;3.90;;;;;;;;;;5066755;28;20491;-80
2023/05/03 06:10:38;;;;;;;9.20;4.30;;;;;;;;;;5061028;28;20472;-80
2023/05/03 06:13:05;;;;;;;5.90;4.10;;;;;;;;;;5062043;28;20876;-80
2023/05/03 06:15:31;;;;;;;5.83;4.60;;;;;;;;;;5061303;28;20532;-79
2023/05/03 06:17:58;;;;;;;5.37;4.60;;;;;;;;;;5061839;28;20445;-79
2023/05/03 06:20:25;;;;;;;8.83;4.40;;;;;;;;;;5061363;28;20461;-79
2023/05/03 06:22:52;;;;;;;7.70;4.40;;;;;;;;;;5064732;28;20511;-79
2023/05/03 06:25:18;;;;;;;4.80;3.60;;;;;;;;;;5061887;28;20484;-79
2023/05/03 06:27:45;;;;;;;7.33;3.80;;;;;;;;;;5082299;28;20455;-79
2023/05/03 06:30:12;;;;;;;5.83;4.03;;;;;;;;;;5085549;28;20890;-79
2023/05/03 06:32:38;;;;;;;7.33;3.17;;;;;;;;;;5061976;28;20449;-80
2023/05/03 06:35:05;;;;;;;6.33;3.60;;;;;;;;;;5061606;28;20452;-79
2023/05/03 06:37:33;;;;;;;11.17;4.70;;;;;;;;;;5077597;28;20468;-79
2023/05/03 06:40:00;;;;;;;6.43;4.03;;;;;;;;;;5080669;28;20456;-80
2023/05/03 06:42:26;;;;;;;7.30;3.20;;;;;;;;;;5061214;28;20853;-80
2023/05/03 06:44:53;;;;;;;5.50;4.00;;;;;;;;;;5062088;28;20528;-79
2023/05/03 06:47:20;;;;;;;5.70;3.73;;;;;;;;;;5063157;28;20484;-80
2023/05/03 06:49:46;;;;;;;5.00;3.30;;;;;;;;;;5060762;28;20452;-80
2023/05/03 06:52:23;;;;;;;6.93;3.20;;;;;;;;;;5060958;28;20552;-78
2023/05/03 06:54:52;;;;;;;4.60;3.10;;;;;;;;;;5069239;28;20495;-79
2023/05/03 06:57:18;;;;;;;6.57;3.70;;;;;;;;;;5063666;28;20495;-77
2023/05/03 06:59:45;;;;;;;5.27;3.70;;;;;;;;;;5070450;28;20484;-76
2023/05/03 07:02:11;;;;;;;4.00;2.50;;;;;;;;;;5065044;28;20479;-77
2023/05/03 07:04:38;;;;;;;4.60;3.27;;;;;;;;;;5065353;28;20508;-76
2023/05/03 07:07:05;;;;;;;5.23;3.00;;;;;;;;;;5066979;28;20852;-76
2023/05/03 07:09:31;;;;;;;6.60;3.90;;;;;;;;;;5065219;28;20461;-76
2023/05/03 07:11:59;;;;;;;7.80;3.97;;;;;;;;;;5062198;28;20476;-76
2023/05/03 07:14:26;;;;;;;5.20;2.60;;;;;;;;;;5059079;28;20457;-76
2023/05/03 07:16:52;;;;;;;4.20;2.93;;;;;;;;;;5079223;28;20517;-76
2023/05/03 07:19:19;;;;;;;7.23;3.07;;;;;;;;;;5085667;28;20459;-75
2023/05/03 07:21:45;;;;;;;3.93;2.80;;;;;;;;;;5063349;28;20498;-76
2023/05/03 07:24:12;;;;;;;6.67;3.20;;;;;;;;;;5075080;28;21000;-76
2023/05/03 07:26:38;;;;;;;8.83;4.00;;;;;;;;;;5058675;28;20479;-77
2023/05/03 07:29:06;;;;;;;3.80;3.00;;;;;;;;;;5065646;28;20457;-77
2023/05/03 07:31:33;;;;;;;5.17;3.23;;;;;;;;;;5066698;28;20538;-77
2023/05/03 07:33:59;;;;;;;5.50;3.13;;;;;;;;;;5065372;28;20459;-76
2023/05/03 07:36:26;;;;;;;5.53;3.17;;;;;;;;;;5064638;28;20530;-76
2023/05/03 07:38:53;;;;;;;6.77;2.70;;;;;;;;;;5072250;28;20478;-77
2023/05/03 07:41:19;;;;;;;4.50;2.53;;;;;;;;;;5073830;28;20510;-77
2023/05/03 07:43:45;;;;;;;4.73;3.00;;;;;;;;;;5085158;28;20491;-76
2023/05/03 07:46:13;;;;;;;5.13;3.90;;;;;;;;;;5084440;28;20467;-76
2023/05/03 07:48:40;;;;;;;7.13;3.47;;;;;;;;;;5085434;28;20447;-76
2023/05/03 07:51:06;;;;;;;6.60;3.20;;;;;;;;;;5084312;28;20475;-76
2023/05/03 07:53:34;;;;;;;9.63;2.07;;;;;;;;;;5084708;28;20452;-76
2023/05/03 07:56:00;;;;;;;4.30;2.20;;;;;;;;;;5080380;28;20483;-76
2023/05/03 07:58:27;;;;;;;4.60;2.00;;;;;;;;;;5066311;28;20486;-77
2023/05/03 08:00:54;;;;;;;4.30;3.20;;;;;;;;;;5063574;28;20992;-76
2023/05/03 08:03:22;;;;;;;12.80;3.03;;;;;;;;;;5075537;28;20479;-76
2023/05/03 08:05:49;;;;;;;4.57;2.30;;;;;;;;;;5065015;28;20476;-77
2023/05/03 08:08:15;;;;;;;7.00;2.27;;;;;;;;;;5060440;28;20531;-76
2023/05/03 08:10:42;;;;;;;3.77;1.80;;;;;;;;;;5067864;28;20567;-76
2023/05/03 08:13:08;;;;;;;5.97;2.57;;;;;;;;;;5065796;28;20445;-75
2023/05/03 08:15:34;;;;;;;5.60;1.80;;;;;;;;;;5062184;28;20460;-76
2023/05/03 08:18:01;;;;;;;6.30;2.10;;;;;;;;;;5067300;28;20498;-76
2023/05/03 08:20:30;;;;;;;5.90;2.23;;;;;;;;;;5066378;28;21175;-77
2023/05/03 08:22:56;;;;;;;4.80;1.97;;;;;;;;;;5063710;28;20992;-77
2023/05/03 08:25:24;;;;;;;4.90;2.33;;;;;;;;;;5071865;28;20918;-76
2023/05/03 08:27:51;;;;;;;4.50;2.17;;;;;;;;;;5064326;28;20461;-77
2023/05/03 08:30:17;;;;;;;4.73;2.10;;;;;;;;;;5064088;28;20461;-77
2023/05/03 08:32:44;;;;;;;6.90;2.07;;;;;;;;;;5083655;28;20452;-77
2023/05/03 08:35:12;;;;;;;3.53;2.00;;;;;;;;;;5081346;28;20464;-76
2023/05/03 08:37:40;;;;;;;3.30;2.00;;;;;;;;;;5090887;28;20512;-76
2023/05/03 08:40:09;;;;;;;4.60;1.93;;;;;;;;;;5090337;28;20488;-76
2023/05/03 08:42:38;;;;;;;4.40;1.80;;;;;;;;;;5082336;28;20571;-77
2023/05/03 08:45:07;;;;;;;3.53;1.73;;;;;;;;;;5081648;28;20471;-76
2023/05/03 08:47:36;;;;;;;6.00;2.00;;;;;;;;;;5081006;28;20476;-76
2023/05/03 08:50:03;;;;;;;3.33;1.73;;;;;;;;;;5080541;28;20478;-76
2023/05/03 08:52:30;;;;;;;4.77;1.73;;;;;;;;;;5079374;28;20505;-77
2023/05/03 08:54:58;;;;;;;4.33;1.97;;;;;;;;;;5080516;28;20888;-76
2023/05/03 08:57:25;;;;;;;4.73;1.97;;;;;;;;;;5084323;28;20474;-76
2023/05/03 08:59:57;;;;;;;2.47;1.87;;;;;;;;;;5081660;28;20531;-77
2023/05/03 09:02:23;;;;;;;5.63;1.97;;;;;;;;;;5088969;28;20497;-76
2023/05/03 09:04:50;;;;;;;5.70;1.80;;;;;;;;;;5087834;28;20463;-76
2023/05/03 09:07:16;;;;;;;3.67;1.57;;;;;;;;;;5088712;28;20514;-76
2023/05/03 09:09:43;;;;;;;5.13;1.90;;;;;;;;;;5083872;28;20452;-75
2023/05/03 09:12:10;;;;;;;5.43;1.80;;;;;;;;;;5081599;28;20480;-76
2023/05/03 09:14:43;;;;;;;5.13;2.20;;;;;;;;;;5082109;28;20497;-76
2023/05/03 09:17:16;;;;;;;4.57;1.90;;;;;;;;;;5081530;28;20476;-76
2023/05/03 09:19:49;;;;;;;6.60;2.13;;;;;;;;;;5081834;28;20485;-76
2023/05/03 09:22:16;;;;;;;3.80;1.90;;;;;;;;;;5068671;28;20511;-76
2023/05/03 09:24:50;;;;;;;3.40;1.60;;;;;;;;;;5067912;28;20520;-77
2023/05/03 09:27:20;;;;;;;2.83;1.43;;;;;;;;;;5062168;28;20480;-76
2023/05/03 09:29:47;;;;;;;3.40;1.97;;;;;;;;;;5062713;28;20508;-77
2023/05/03 09:32:13;;;;;;;7.23;2.00;;;;;;;;;;5060990;28;20486;-77
2023/05/03 09:34:40;;;;;;;9.57;2.10;;;;;;;;;;5062200;28;20456;-76
2023/05/03 09:37:07;;;;;;;4.70;1.90;;;;;;;;;;5062352;28;20468;-77
2023/05/03 09:39:35;;;;;;;3.67;2.17;;;;;;;;;;5063904;28;20451;-76
2023/05/03 09:42:10;;;;;;;4.70;1.80;;;;;;;;;;5077806;28;20472;-76
2023/05/03 09:44:47;;;;;;;3.90;2.10;;;;;;;;;;5079935;28;20518;-77
2023/05/03 09:47:14;;;;;;;4.23;1.90;;;;;;;;;;5074854;28;20575;-76
2023/05/03 09:49:40;;;;;;;7.37;1.90;;;;;;;;;;5081931;28;20455;-76
2023/05/03 09:52:07;;;;;;;5.00;2.03;;;;;;;;;;5078485;28;21024;-76
2023/05/03 09:54:35;;;;;;;7.13;2.90;;;;;;;;;;5079178;28;20480;-76
2023/05/03 09:57:04;;;;;;;4.53;2.27;;;;;;;;;;5074153;28;20476;-77
2023/05/03 09:59:31;;;;;;;3.87;2.27;;;;;;;;;;5082469;28;20509;-77
2023/05/03 10:02:00;;;;;;;7.30;2.80;;;;;;;;;;5084393;28;20501;-76
2023/05/03 10:04:27;;;;;;;3.60;2.07;;;;;;;;;;5082265;28;20490;-76
2023/05/03 10:06:57;;;;;;;5.50;2.57;;;;;;;;;;5080659;28;20498;-77
2023/05/03 10:09:26;;;;;;;2.70;2.17;;;;;;;;;;5087737;28;20458;-75
2023/05/03 10:11:53;;;;;;;6.33;2.67;;;;;;;;;;5084898;28;20471;-75
2023/05/03 10:14:20;;;;;;;6.77;2.10;;;;;;;;;;5087892;28;20467;-75
2023/05/03 10:16:49;;;;;;;5.07;2.50;;;;;;;;;;5082809;28;20543;-75
2023/05/03 10:19:19;;;;;;;3.87;2.27;;;;;;;;;;5082695;28;20985;-75
2023/05/03 10:21:54;;;;;;;5.57;2.17;;;;;;;;;;5089081;28;20500;-75
2023/05/03 10:24:20;;;;;;;4.93;2.10;;;;;;;;;;5087489;28;20551;-75
2023/05/03 10:26:49;;;;;;;9.13;2.63;;;;;;;;;;5083191;28;21647;-75
2023/05/03 10:29:34;;;;;;;4.10;2.43;;;;;;;;;;5084823;28;20447;-77
2023/05/03 10:32:01;;;;;;;2.67;2.03;;;;;;;;;;5083780;28;20479;-76
2023/05/03 10:34:32;;;;;;;6.10;2.83;;;;;;;;;;5085240;28;20451;-73
2023/05/03 10:37:01;;;;;;;5.43;2.67;;;;;;;;;;5083935;28;21292;-75
2023/05/03 10:39:28;;;;;;;3.93;2.47;;;;;;;;;;5085999;28;21129;-74
2023/05/03 10:42:00;;;;;;;5.90;2.90;;;;;;;;;;5073438;28;20499;-75
2023/05/03 10:44:27;;;;;;;7.97;3.17;;;;;;;;;;5064856;28;20487;-75
2023/05/03 10:46:53;;;;;;;4.63;2.23;;;;;;;;;;5064769;28;20526;-75
2023/05/03 10:49:21;;;;;;;4.43;2.40;;;;;;;;;;5067573;28;20442;-76
2023/05/03 10:51:50;;;;;;;4.37;2.00;;;;;;;;;;5064508;28;20503;-76
2023/05/03 10:54:18;;;;;;;4.53;2.37;;;;;;;;;;5059500;28;20453;-75
2023/05/03 10:56:48;;;;;;;4.63;2.60;;;;;;;;;;5062213;28;20484;-76
2023/05/03 10:59:14;;;;;;;4.07;2.67;;;;;;;;;;5058986;28;20460;-75
2023/05/03 11:01:41;;;;;;;3.93;3.00;;;;;;;;;;5064102;28;20487;-75
2023/05/03 11:04:09;;;;;;;4.70;2.90;;;;;;;;;;5066294;28;20527;-76
2023/05/03 11:06:37;;;;;;;3.50;2.90;;;;;;;;;;5064129;28;20495;-75
2023/05/03 11:09:05;;;;;;;5.47;3.43;;;;;;;;;;5064010;28;20519;-76
2023/05/03 11:11:32;;;;;;;8.87;2.77;;;;;;;;;;5065187;28;20509;-76
2023/05/03 11:13:59;;;;;;;7.00;3.20;;;;;;;;;;5069447;28;20964;-76
2023/05/03 11:16:26;;;;;;;3.80;2.80;;;;;;;;;;5063810;28;20513;-77
2023/05/03 11:18:52;;;;;;;7.10;3.37;;;;;;;;;;5070437;28;20506;-76
2023/05/03 11:21:19;;;;;;;4.87;3.00;;;;;;;;;;5061864;28;20475;-76
2023/05/03 11:23:45;;;;;;;5.60;2.80;;;;;;;;;;5069347;28;20484;-76
2023/05/03 11:26:13;;;;;;;4.67;2.93;;;;;;;;;;5068649;28;20472;-76
2023/05/03 11:28:40;;;;;;;4.37;3.20;;;;;;;;;;5068732;28;20444;-75
2023/05/03 11:31:07;;;;;;;4.30;3.90;;;;;;;;;;5061665;28;20865;-76
2023/05/03 11:33:34;;;;;;;5.10;3.00;;;;;;;;;;5065199;28;20525;-75
2023/05/03 11:36:02;;;;;;;5.33;3.47;;;;;;;;;;5063074;28;20492;-76
2023/05/03 11:38:29;;;;;;;7.80;4.03;;;;;;;;;;5063894;28;20449;-76
2023/05/03 11:40:56;;;;;;;4.03;2.50;;;;;;;;;;5069618;28;20533;-76
2023/05/03 11:43:25;;;;;;;8.23;3.50;;;;;;;;;;5066853;28;20477;-75
2023/05/03 11:45:54;;;;;;;9.07;3.70;;;;;;;;;;5068029;28;20480;-75
2023/05/03 11:48:21;;;;;;;5.93;3.27;;;;;;;;;;5084289;28;20456;-75
2023/05/03 11:50:50;;;;;;;4.90;3.00;;;;;;;;;;5077777;28;20555;-75
2023/05/03 11:53:17;;;;;;;6.53;3.20;;;;;;;;;;5063188;28;20445;-75
2023/05/03 11:55:46;;;;;;;6.97;3.50;;;;;;;;;;5062191;28;20483;-78
2023/05/03 11:58:13;;;;;;;4.10;2.93;;;;;;;;;;5063601;28;21137;-75
2023/05/03 12:00:42;;;;;;;4.97;3.30;;;;;;;;;;5066091;28;20471;-75
2023/05/03 12:03:09;;;;;;;4.30;3.10;;;;;;;;;;5063646;28;20457;-75
2023/05/03 12:05:35;;;;;;;5.07;3.63;;;;;;;;;;5062515;28;20491;-74
2023/05/03 12:08:02;;;;;;;6.00;3.13;;;;;;;;;;5067156;28;20522;-75
2023/05/03 12:10:31;;;;;;;6.23;3.17;;;;;;;;;;5065740;28;21212;-75
2023/05/03 12:12:59;;;;;;;6.13;3.50;;;;;;;;;;5062155;28;20461;-75
2023/05/03 12:15:29;;;;;;;4.37;3.03;;;;;;;;;;5066537;28;20475;-76
2023/05/03 12:17:58;;;;;;;3.83;3.20;;;;;;;;;;5065865;28;20453;-78
2023/05/03 12:20:27;;;;;;;6.87;3.83;;;;;;;;;;5065119;28;20515;-80
2023/05/03 12:22:54;;;;;;;6.53;3.40;;;;;;;;;;5083558;28;20459;-81
2023/05/03 12:25:21;;;;;;;5.00;3.37;;;;;;;;;;5073246;28;20503;-80
2023/05/03 12:27:47;;;;;;;5.90;3.40;;;;;;;;;;5063917;28;20444;-80
2023/05/03 12:30:14;;;;;;;7.53;3.97;;;;;;;;;;5062801;28;20453;-81
2023/05/03 12:32:41;;;;;;;4.70;4.00;;;;;;;;;;5062658;28;20471;-82
2023/05/03 12:35:09;;;;;;;7.53;3.63;;;;;;;;;;5064255;28;20457;-81
2023/05/03 12:37:36;;;;;;;8.13;4.23;;;;;;;;;;5066265;28;20858;-82
2023/05/03 12:40:03;;;;;;;5.57;3.77;;;;;;;;;;5071422;28;20464;-80
2023/05/03 12:42:29;;;;;;;7.30;4.00;;;;;;;;;;5063059;28;20485;-82
2023/05/03 12:44:56;;;;;;;4.37;3.97;;;;;;;;;;5063672;28;20523;-80
2023/05/03 12:47:23;;;;;;;6.50;4.17;;;;;;;;;;5062358;28;20579;-82
2023/05/03 12:49:50;;;;;;;5.53;4.53;;;;;;;;;;5057282;28;20491;-80
2023/05/03 12:52:18;;;;;;;6.93;3.97;;;;;;;;;;5064792;28;20479;-81
2023/05/03 12:54:45;;;;;;;7.23;4.17;;;;;;;;;;5062853;28;20480;-81
2023/05/03 12:57:13;;;;;;;6.00;4.30;;;;;;;;;;5061754;28;20924;-80
2023/05/03 12:59:39;;;;;;;5.47;3.90;;;;;;;;;;5062646;28;20465;-80
2023/05/03 13:02:07;;;;;;;6.33;4.77;;;;;;;;;;5068290;28;20500;-80
2023/05/03 13:04:34;;;;;;;4.77;4.17;;;;;;;;;;5067159;28;20488;-81
2023/05/03 13:07:00;;;;;;;8.03;3.60;;;;;;;;;;5061322;28;20475;-80
2023/05/03 13:09:28;;;;;;;5.17;4.60;;;;;;;;;;5061326;28;20449;-81
2023/05/03 13:11:55;;;;;;;4.83;3.70;;;;;;;;;;5062124;28;20508;-81
2023/05/03 13:14:22;;;;;;;6.57;4.43;;;;;;;;;;5062272;28;20452;-79
2023/05/03 13:16:50;;;;;;;10.50;5.00;;;;;;;;;;5079644;28;20543;-80
2023/05/03 13:19:16;;;;;;;11.70;5.03;;;;;;;;;;5082424;28;20456;-80
2023/05/03 13:21:43;;;;;;;6.87;4.90;;;;;;;;;;5080377;28;21070;-82
2023/05/03 13:24:09;;;;;;;5.93;4.00;;;;;;;;;;5091087;28;20491;-78
2023/05/03 13:26:37;;;;;;;5.93;3.83;;;;;;;;;;5088186;28;20479;-82
2023/05/03 13:29:03;;;;;;;5.97;4.33;;;;;;;;;;5084496;28;20471;-80
2023/05/03 13:31:30;;;;;;;4.27;3.87;;;;;;;;;;5081615;28;20626;-81
2023/05/03 13:33:56;;;;;;;6.00;4.60;;;;;;;;;;5083414;28;20452;-78
2023/05/03 13:36:23;;;;;;;8.00;4.83;;;;;;;;;;5081549;28;20480;-77
2023/05/03 13:38:51;;;;;;;9.50;5.43;;;;;;;;;;5082448;28;20464;-81
2023/05/03 13:41:17;;;;;;;5.20;4.80;;;;;;;;;;5085570;28;20460;-81
2023/05/03 13:43:45;;;;;;;8.00;4.37;;;;;;;;;;5085226;28;20456;-81
2023/05/03 13:46:11;;;;;;;8.83;4.37;;;;;;;;;;5072588;28;20476;-82
2023/05/03 13:48:38;;;;;;;8.17;4.17;;;;;;;;;;5059258;28;20451;-81
2023/05/03 13:51:07;;;;;;;5.87;4.63;;;;;;;;;;5067576;28;20567;-81
2023/05/03 13:53:33;;;;;;;5.17;4.57;;;;;;;;;;5068446;28;20452;-80
2023/05/03 13:56:00;;;;;;;5.13;4.63;;;;;;;;;;5068239;28;20540;-80
2023/05/03 13:58:26;;;;;;;5.83;4.33;;;;;;;;;;5069025;28;20449;-80
2023/05/03 14:00:54;;;;;;;4.70;4.20;;;;;;;;;;5061336;28;20506;-80
2023/05/03 14:03:21;;;;;;;7.40;4.40;;;;;;;;;;5065531;28;20449;-81
2023/05/03 14:05:47;;;;;;;4.97;4.43;;;;;;;;;;5068340;28;20536;-81
2023/05/03 14:08:14;;;;;;;5.30;4.40;;;;;;;;;;5070044;28;20484;-81
2023/05/03 14:10:41;;;;;;;8.07;4.43;;;;;;;;;;5068923;28;20898;-81
2023/05/03 14:13:08;;;;;;;5.13;4.63;;;;;;;;;;5086355;28;20448;-82
2023/05/03 14:15:38;;;;;;;7.07;3.67;;;;;;;;;;5091038;28;20510;-81
2023/05/03 14:18:06;;;;;;;6.60;4.53;;;;;;;;;;5083524;28;20449;-80
2023/05/03 14:20:33;;;;;;;8.40;5.20;;;;;;;;;;5077885;28;20482;-82
2023/05/03 14:22:59;;;;;;;6.70;5.00;;;;;;;;;;5066085;28;20483;-80
2023/05/03 14:25:26;;;;;;;6.20;4.67;;;;;;;;;;5059756;28;20604;-84
2023/05/03 14:27:53;;;;;;;12.50;4.47;;;;;;;;;;5059731;28;20456;-81
2023/05/03 14:30:20;;;;;;;5.07;4.47;;;;;;;;;;5060211;28;20600;-81
2023/05/03 14:32:46;;;;;;;7.13;4.70;;;;;;;;;;5061921;28;20499;-83
2023/05/03 14:35:14;;;;;;;8.53;5.00;;;;;;;;;;5063010;28;20454;-76
2023/05/03 14:37:41;;;;;;;6.00;4.20;;;;;;;;;;5067117;28;20911;-81
2023/05/03 14:40:09;;;;;;;5.30;4.90;;;;;;;;;;5062321;28;20457;-82
2023/05/03 14:42:35;;;;;;;7.80;5.00;;;;;;;;;;5061313;28;20492;-83